Weather observations for the past three days for
Andrews-Murphy Airport
Metric (Imperial)
Date Time (edt) Wind (kph) Vis. (km) Weather Sky Cond. Temperature (ºC) Relative Humidity Wind Chill (°C) Heat Index (°C) Pressure Precipitation (cm)
Air Dwpt 6 hour altimeter (cm) sea level (mb) 1 hr 3 hr 6 hr
Max. Min.
05 23:35 Calm 11.27 Fair CLR 19.9 19.1 95% 76.23 0.0
05 23:15 Calm 6.44 Fog/Mist CLR 20.1 19.3 95% 76.23 0.0
05 22:55 Calm 8.05 Fog/Mist CLR 20.2 19.5 96% 76.23 0.0
05 22:35 Calm 11.27 Fair CLR 20.5 19.7 95% 76.2 0.0
05 22:15 Calm 11.27 Fair CLR 20.6 19.8 95% 76.17 0.0
05 21:55 Calm 16.09 Fair CLR 20.7 20 96% 76.17 0.0
05 21:35 Calm 11.27 Fair CLR 21 20.2 95% 76.15 0.0
05 21:15 Calm 16.09 Fair CLR 21.1 20.1 94% 76.15 0.0
05 20:55 Calm 16.09 Fair CLR 21.5 20.3 93% 76.15 0.0
05 20:35 Calm 16.09 Fair CLR 21.7 20.4 92% 76.12 0.0
05 20:15 Calm 16.09 Fair CLR 22.3 20.6 90% 76.15 0.0
05 19:55 Calm 16.09 Fair CLR 23 21 29.3 22.5 89% 76.12 0.0 0.13
05 19:35 W 6 16.09 Fair CLR 23.4 21 86% 76.12 0.0
05 19:15 NE 6 16.09 Fair CLR 23.6 21.1 86% 76.1 0.0
05 18:55 E 9 16.09 Fair CLR 24 21.7 87% 24 76.1 0.0
05 18:35 Calm 16.09 Fair CLR 23.6 21 85% 76.12 0.0
05 18:15 Calm 16.09 Fair CLR 23.8 21.1 85% 76.15 0.0
05 17:55 Calm 16.09 Fair CLR 23.7 21 85% 76.12 0.0
05 17:35 Calm 16.09 Fair CLR 24 20.9 83% 24 76.15 0.0
05 17:15 Calm 16.09 Fair CLR 24.2 20.9 82% 25 76.15 0.0
05 16:55 E 6 16.09 Fair CLR 23.6 21 85% 76.17 0.0 0.13
05 16:35 NW 6 16.09 Fair CLR 22.6 20.9 90% 76.17 0.0
05 16:15 Calm 16.09 Fair CLR 23.5 21.5 89% 76.2 0.0
05 15:55 Calm 16.09 Partly Cloudy SCT042 SCT050 SCT070 24.2 21.3 84% 24 76.23 0.0 0.13
05 13:55 SW 7 16.09 Partly Cloudy SCT050 28.1 22.3 32 19.2 71% 31 76.23 0.0
05 13:35 W 13 16.09 Partly Cloudy SCT043 SCT049 29.6 22.7 66% 33 76.23 0.0
05 13:15 NW 6 16.09 Mostly Cloudy SCT041 BKN047 BKN050 30.5 21.4 58% 33 76.25 0.0
05 12:55 S 6 16.09 Fair CLR 31.7 21.1 53% 35 76.23 0.0
05 12:35 Calm 16.09 Fair CLR 30.8 22.1 60% 34 76.25 0.0
05 12:15 W 6 16.09 Fair CLR 30.2 22.2 62% 34 76.28 0.0
05 11:55 Calm 16.09 Fair CLR 29.3 21 61% 32 76.3 0.0
05 11:35 Calm 16.09 Fair CLR 28.3 20.4 62% 30 76.3 0.0
05 11:15 Calm 16.09 Fair CLR 27.3 20.5 66% 29 76.3 0.0
05 10:55 Calm 16.09 Fair CLR 26 21 74% 27 76.33 0.0
05 10:35 Calm 16.09 Partly Cloudy SCT120 24.5 21.2 82% 25 76.33 0.0
05 10:15 Calm 16.09 Partly Cloudy SCT120 23.3 21.4 89% 76.35 0.0
05 09:55 Calm 16.09 Fair CLR 22.6 21.2 92% 76.35 0.0
05 09:35 Calm 16.09 Fair CLR 21.3 20.5 95% 76.38 0.0
05 09:15 Calm 16.09 Fair CLR 20.8 20.1 96% 76.38 0.0
05 08:55 Calm 16.09 Fair CLR 20.2 19.5 96% 76.38 0.0
05 08:35 Calm 11.27 Fair CLR 19.9 19.1 95% 76.38 0.0
05 08:15 Calm 6.44 Fog/Mist CLR 19.5 18.8 96% 76.38 0.0
05 07:55 Calm 6.44 Fog/Mist BKN002 19.1 18.5 20.2 18.5 96% 76.38 0.0
05 07:35 Calm 0.24 Fog OVC002 18.7 18 96% 76.35 0.0
05 07:15 Calm 0.40 Fog OVC002 18.7 18 96% 76.33 0.0
05 06:55 Calm 0.40 Fog OVC002 18.6 18 96% 76.33 0.0
05 06:35 Calm 0.80 Fog OVC002 18.9 18.2 96% 76.3 0.0
05 06:15 Calm 2.41 Fog/Mist BKN002 18.7 18 96% 76.3 0.0
05 05:55 Calm 8.05 Fog/Mist CLR 18.7 18 96% 76.28 0.0
05 05:35 Calm 6.44 Fog/Mist CLR 18.8 18.1 96% 76.28 0.0
05 05:15 Calm 4.83 Fog/Mist CLR 18.9 18.2 96% 76.28 0.0
05 04:55 Calm 6.44 Fog/Mist CLR 19.1 18.4 96% 76.28 0.0
05 04:35 Calm 8.05 Fog/Mist CLR 19.1 18.5 96% 76.28 0.0
05 04:15 Calm 11.27 Fair CLR 19.4 18.6 95% 76.28 0.0
05 03:55 Calm 11.27 Fair CLR 19.5 18.7 95% 76.3 0.0
05 03:35 Calm 8.05 Fog/Mist CLR 19.5 18.8 96% 76.33 0.0
05 03:15 Calm 8.05 Fog/Mist CLR 19.6 19 96% 76.33 0.0
05 02:55 Calm 16.09 Fair CLR 19.8 19 95% 76.33 0.0
05 02:35 Calm 8.05 Fog/Mist CLR 19.8 19.1 96% 76.33 0.0
05 02:15 Calm 11.27 Fair CLR 20 19.3 96% 76.33 0.0
05 01:55 Calm 8.05 Fog/Mist CLR 20.1 19.4 23 20.1 96% 76.35 0.0
05 01:35 Calm 8.05 Fog/Mist CLR 20.2 19.5 96% 76.35 0.0
05 01:15 Calm 11.27 Partly Cloudy SCT002 20.6 20 96% 76.35 0.0
05 00:56 NE 6 0.40 Fog OVC002 21 20.2 95% 76.38 0.0
05 00:35 Calm 1.21 Fog/Mist OVC002 21 20.2 95% 76.35 0.0
05 00:15 Calm 2.41 Fog/Mist BKN002 20.5 19.8 96% 76.35 0.0
04 23:55 Calm 6.44 Fog/Mist BKN002 20.7 20 96% 76.38 0.0
04 23:35 Calm 4.83 Fog/Mist OVC002 20.9 20.1 95% 76.38 0.0
04 23:15 Calm 0.40 Fog OVC002 21 20.1 95% 76.4 0.0
04 22:55 Calm 6.44 Fog/Mist CLR 21.2 20.5 96% 76.4 0.0
04 22:35 Calm 8.05 Fog/Mist CLR 21.3 20.6 96% 76.43 0.0
04 22:15 Calm 8.05 Fog/Mist CLR 21.4 20.6 95% 76.43 0.0
04 21:55 Calm 11.27 Fair CLR 21.6 20.8 95% 76.43 0.0
04 21:35 Calm 11.27 Fair CLR 21.6 21 96% 76.43 0.0
04 21:15 Calm 16.09 Fair CLR 22 21.2 95% 76.4 0.0
04 20:55 Calm 16.09 Fair CLR 22.2 21.4 95% 76.4 0.0
04 20:35 Calm 16.09 Fair CLR 22.3 21.5 95% 76.4 0.0
04 20:15 Calm 16.09 Fair CLR 22.7 21.7 94% 76.38 0.0
04 19:55 Calm 16.09 Fair CLR 23 21.8 33.6 22.7 93% 76.38 0.0 0.03 2.82
04 19:35 Calm 16.09 Fair CLR 23.2 21.8 92% 76.38 0.0 0.03
04 19:15 Calm 16.09 Fair CLR 23.1 21.5 91% 76.38 0.0
04 18:55 Calm 16.09 Fair CLR 22.9 20.9 89% 76.35 0.0 2.51
04 18:35 E 9 6.44 Rain SCT005 SCT009 SCT034 23 20.7 87% 76.35 0.0 2.51
04 18:15 W 26 G 37 1.61 Heavy Rain BKN005 OVC009 22.8 18.9 79% 76.33 0.0 1.63
04 17:55 S 13 16.09 Rain BKN050 28 20.2 63% 30 76.33 0.0 0.03
04 17:35 S 15 16.09 Partly Cloudy SCT050 29.7 21.1 60% 32 76.28 0.0
04 17:15 E 6 16.09 Partly Cloudy SCT060 SCT070 33.1 20.9 49% 36 76.28 0.0
04 16:55 N 11 16.09 Partly Cloudy SCT060 SCT070 33 20.6 48% 36 76.28 0.0
04 16:35 NW 7 16.09 Partly Cloudy SCT060 SCT120 33.4 21.4 49% 37 76.3 0.0
04 16:15 N 6 16.09 Partly Cloudy SCT060 SCT120 32.6 21.5 52% 36 76.3 0.0
04 15:55 Calm 16.09 Overcast BKN060 BKN070 OVC110 30.3 23.4 67% 35 76.33 0.0
04 15:35 Calm 16.09 Mostly Cloudy BKN060 BKN070 BKN110 29.9 23 67% 34 76.38 0.0
04 15:15 W 6 16.09 Partly Cloudy SCT065 30 22.7 65% 34 76.38 0.0
04 14:55 Calm 16.09 Fair CLR 32.4 18.6 44% 34 76.38 0.0
04 14:35 Calm 16.09 Partly Cloudy SCT049 32.9 20.4 48% 35 76.4 0.0
04 14:15 E 6 16.09 Mostly Cloudy BKN049 BKN070 31.9 20 49% 34 76.43 0.0
04 13:55 S 6 16.09 Partly Cloudy SCT055 SCT070 33.3 20.3 33.3 20 46% 36 76.43 0.0
04 13:35 Calm 16.09 Partly Cloudy SCT046 SCT060 31.9 20.2 50% 34 76.45 0.0
04 13:15 N 6 16.09 Partly Cloudy SCT044 SCT055 SCT070 32 20.7 51% 35 76.45 0.0
04 12:55 Calm 16.09 Partly Cloudy SCT044 SCT070 32.3 21.3 52% 36 76.5 0.0
04 12:35 S 6 16.09 Fair CLR 31.9 21.5 54% 35 76.5 0.0
04 12:15 Calm 16.09 Fair CLR 31 21 55% 34 76.53 0.0
04 11:55 Calm 16.09 Fair CLR 30.4 20.7 56% 33 76.53 0.0
04 11:35 Calm 16.09 Fair CLR 30 20.6 57% 32 76.53 0.0
04 11:15 Calm 16.09 Fair CLR 29.3 20.9 61% 32 76.56 0.0
04 10:55 Calm 16.09 Fair CLR 28.3 21.1 65% 31 76.56 0.0
04 10:35 Calm 16.09 Fair CLR 27.6 21 67% 30 76.56 0.0
04 10:15 Calm 16.09 Fair CLR 26.3 20.7 71% 28 76.53 0.0
04 09:55 Calm 16.09 Fair CLR 25 20.8 78% 26 76.53 0.0
04 09:35 Calm 16.09 Fair CLR 23.3 21 87% 76.53 0.0
04 09:15 Calm 16.09 Fair CLR 22.3 20.9 92% 76.56 0.0
04 08:55 Calm 16.09 Fair CLR 21.5 20.8 96% 76.56 0.0
04 08:35 Calm 16.09 Fair CLR 20.6 20 96% 76.56 0.0
04 08:15 Calm 6.44 Fog/Mist CLR 20.2 19.5 96% 76.56 0.0
04 07:55 Calm 6.44 Fog/Mist CLR 19.7 19 21.5 19 96% 76.56 0.0
04 07:35 Calm 8.05 Fog/Mist CLR 19.5 18.7 95% 76.53 0.0
04 07:15 Calm 1.61 Fog/Mist BKN003 19.2 18.5 96% 76.53 0.0
04 06:55 Calm 0.80 Fog BKN003 19.1 18.4 96% 76.5 0.0
04 06:35 Calm 6.44 Fog/Mist CLR 19.1 18.4 96% 76.5 0.0
04 06:15 Calm 8.05 Fog/Mist CLR 19.3 18.6 96% 76.5 0.0
04 05:55 Calm 6.44 Fog/Mist CLR 19.3 18.6 96% 76.5 0.0
04 05:35 Calm 8.05 Fog/Mist CLR 19.4 18.6 95% 76.48 0.0
04 05:15 Calm 11.27 Fair CLR 19.5 18.8 96% 76.45 0.0
04 04:55 Calm 8.05 Fog/Mist CLR 19.7 19 96% 76.45 0.0
04 04:35 Calm 4.83 Fog/Mist CLR 20 19.3 96% 76.45 0.0
04 04:15 Calm 8.05 Fog/Mist CLR 19.9 19.1 95% 76.45 0.0
04 03:55 Calm 4.02 Fog/Mist CLR 20.2 19.5 96% 76.45 0.0
04 03:35 Calm 8.05 Fog/Mist CLR 20.6 19.9 96% 76.45 0.0
04 03:16 Calm 11.27 Fair CLR 20.5 19.8 96% 76.45 0.0
04 02:55 Calm 6.44 Fog/Mist CLR 20.7 20 96% 76.45 0.0
04 02:35 Calm 4.02 Fog/Mist CLR 21 20.2 95% 76.45 0.0
04 02:15 Calm 4.02 Fog/Mist CLR 21.3 20.5 95% 76.5 0.0
04 01:55 Calm 11.27 Fair CLR 21.3 20.5 26.5 21.3 95% 76.5 0.0
04 01:35 Calm 16.09 Fair CLR 21.6 20.8 95% 76.5 0.0
04 01:15 Calm 11.27 Fair CLR 21.7 21 96% 76.5 0.0
04 00:55 Calm 11.27 Fair CLR 22 21.1 95% 76.53 0.0
04 00:35 Calm 11.27 Fair CLR 22.2 21.2 94% 76.53 0.0
04 00:15 Calm 16.09 Fair CLR 22.4 21.1 92% 76.53 0.0
03 23:55 Calm 16.09 Fair CLR 22.8 21.5 92% 76.56 0.0
03 23:35 Calm 16.09 Fair CLR 23 21.5 91% 76.56 0.0
03 23:15 Calm 16.09 Fair CLR 23.2 21.7 91% 76.56 0.0
03 22:55 Calm 16.09 Fair CLR 23.5 22 91% 76.56 0.0
03 22:35 Calm 16.09 Fair CLR 23.6 22 91% 76.56 0.0
03 22:15 Calm 16.09 Fair CLR 24 22.2 90% 24 76.56 0.0
03 21:55 Calm 16.09 Fair CLR 24.5 22.4 88% 25 76.53 0.0
03 21:35 Calm 16.09 Fair CLR 24.7 22.7 89% 25 76.5 0.0
03 21:15 Calm 16.09 Fair CLR 25 22.5 86% 26 76.48 0.0
03 20:55 Calm 16.09 Fair CLR 25.5 22.2 82% 27 76.45 0.0
03 20:35 N 6 16.09 Fair CLR 25.3 22.3 84% 26 76.43 0.0
03 20:15 Calm 16.09 Fair CLR 26.2 22.5 80% 28 76.43 0.0
03 19:55 Calm 16.09 Fair CLR 26.8 22.6 33.7 26.8 78% 29 76.4 0.0
03 19:35 Calm 16.09 Fair CLR 27.7 21.6 69% 30 76.38 0.0
03 19:15 NE 6 16.09 Fair CLR 28.7 21.4 65% 31 76.38 0.0
03 18:55 E 7 16.09 Fair CLR 29.4 21.3 62% 32 76.38 0.0
03 18:35 E 7 16.09 Fair CLR 30.4 21.5 59% 33 76.4 0.0
03 18:15 E 7 16.09 Fair CLR 30.8 21.1 56% 34 76.4 0.0
03 17:55 E 6 16.09 Fair CLR 30.9 20.9 55% 34 76.4 0.0
03 17:35 SE 9 16.09 Partly Cloudy SCT095 30.1 20.8 57% 33 76.4 0.0
03 17:15 E 7 16.09 Partly Cloudy SCT033 SCT041 SCT060 31.1 20.5 53% 33 76.4 0.0
03 16:55 SE 7 16.09 Partly Cloudy SCT060 29.8 18.7 51% 31 76.4 0.0
03 16:35 SE 13 16.09 Partly Cloudy SCT060 30.8 19.9 52% 33 76.4 0.0
03 16:15 S 7 16.09 Fair CLR 30.9 22.3 60% 35 76.4 0.0
03 15:55 S 7 16.09 Fair CLR 31.7 21.8 56% 35 76.4 0.0
03 15:35 SW 6 16.09 Fair CLR 33.7 20.4 46% 36 76.4 0.0
03 15:15 Calm 16.09 Partly Cloudy SCT065 SCT075 32 19.4 47% 34 76.43 0.0
03 14:55 NE 6 16.09 Partly Cloudy SCT055 SCT075 33.7 20.5 46% 36 76.43 0.0
03 14:35 Calm 16.09 Mostly Cloudy SCT050 SCT065 BKN110 33.4 19.3 43% 35 76.45 0.0
03 14:15 Calm 16.09 Partly Cloudy SCT050 SCT090 SCT120 32.1 19.1 46% 34 76.45 0.0
03 13:55 N 6 16.09 Partly Cloudy SCT050 31.9 20.1 32.7 19.5 50% 34 76.5 0.0
03 13:35 Calm 16.09 Partly Cloudy SCT050 32.6 19.4 46% 34 76.5 0.0
03 13:15 Calm 16.09 Partly Cloudy SCT050 32.5 19.2 45% 34 76.53 0.0
03 12:55 SE 6 16.09 Fair CLR 32 19 46% 33 76.56 0.0
03 12:35 Calm 16.09 Fair CLR 32.2 19.9 48% 34 76.58 0.0
03 12:15 Calm 16.09 Fair CLR 31.5 19.9 50% 34 76.58 0.0
03 11:55 Calm 16.09 Fair CLR 30.8 20.5 54% 33 76.58 0.0
03 11:35 Calm 16.09 Fair CLR 30 20 55% 32 76.61 0.0
03 11:15 Calm 16.09 Fair CLR 29.2 19.6 56% 31 76.61 0.0
03 10:55 Calm 16.09 Fair CLR 28.5 21.1 64% 31 76.61 0.0
03 10:35 Calm 16.09 Fair CLR 27.2 19.9 64% 29 76.58 0.0
03 10:15 Calm 16.09 Fair CLR 26.3 20.8 72% 28 76.61 0.0
03 09:55 Calm 16.09 Fair CLR 24.7 20.3 77% 25 76.61 0.0
03 09:35 Calm 16.09 Fair CLR 23.1 20.3 84% 76.63 0.0
03 09:15 Calm 16.09 Fair CLR 21.8 20.1 90% 76.63 0.0
03 08:55 Calm 16.09 Fair CLR 21.1 20.3 95% 76.66 0.0
03 08:35 Calm 16.09 Fair CLR 20.5 19.8 96% 76.66 0.0
03 08:15 Calm 11.27 Fair CLR 20 19.4 96% 76.63 0.0
03 07:55 Calm 8.05 Fog/Mist CLR 19.3 18.6 20.6 18.7 96% 76.63 0.0
03 07:35 Calm 6.44 Fog/Mist CLR 18.7 18 96% 76.61 0.0
03 07:15 Calm 6.44 Fog/Mist CLR 18.8 18.1 96% 76.61 0.0
03 06:55 Calm 8.05 Fog/Mist CLR 18.9 18.2 96% 76.58 0.0
03 06:35 Calm 11.27 Fair CLR 18.9 18.2 96% 76.58 0.0
03 06:15 Calm 11.27 Fair CLR 19.5 18.7 95% 76.56 0.0
03 05:55 Calm 11.27 Fair CLR 19.2 18.5 96% 76.56 0.0
03 05:35 Calm 8.05 Fog/Mist CLR 19.1 18.4 96% 76.56 0.0
03 05:15 Calm 11.27 Fair CLR 19.5 18.7 95% 76.56 0.0
03 04:55 Calm 8.05 Fog/Mist CLR 19.3 18.6 96% 76.56 0.0
03 04:35 Calm 3.22 Fog/Mist CLR 19.8 19 95% 76.56 0.0
03 04:15 Calm 11.27 Fair CLR 19.5 18.8 96% 76.56 0.0
03 03:55 Calm 6.44 Fog/Mist CLR 19.7 19 96% 76.56 0.0
03 03:35 Calm 11.27 Fair CLR 19.8 19.1 96% 76.56 0.0
03 03:15 Calm 16.09 Fair CLR 20.1 19.4 96% 76.56 0.0
03 02:55 Calm 16.09 Fair CLR 20.2 19.5 96% 76.56 0.0
03 02:35 Calm 16.09 Fair CLR 20.3 19.6 96% 76.56 0.0
03 02:15 Calm 11.27 Fair CLR 20.5 19.8 96% 76.56 0.0
03 01:55 Calm 16.09 Fair CLR 20.6 19.9 27.4 20.5 96% 76.56 0.0
03 01:35 Calm 16.09 Fair CLR 20.7 19.9 95% 76.56 0.0
03 01:15 Calm 16.09 Fair CLR 20.8 20 95% 76.58 0.0
03 00:55 Calm 16.09 Fair CLR 21 20.1 95% 76.58 0.0
03 00:35 Calm 16.09 Fair CLR 21.3 20.3 94% 76.56 0.0
03 00:15 Calm 16.09 Fair CLR 21.5 20.4 93% 76.58 0.0
02 23:55 Calm 16.09 Fair CLR 21.6 20.3 92% 76.58 0.0
Date Time (edt) Wind (kph) Vis. (km) Weather Sky Cond. Air Dwpt Max. Min. Relative Humidity Wind Chill (°C) Heat Index (°C) altimeter (cm) sea level (mb) 1 hr 3 hr 6 hr
6 hour
Temperature (ºC) Pressure Precipitation (cm)